Time;durP1;ratioP1;P1;durP2;ratioP2;P2;SDS_P1;SDS_P2;PMS_P1;PMS_P2;Temp;Humidity;BMP_temperature;BMP_pressure;BME280_temperature;BME280_humidity;BME280_pressure;Samples;Min_cycle;Max_cycle;Signal;HPM_P1;HPM_P2
2023/07/10 00:01:01;;;;;;;8.00;7.05;;;17.60;99.90;;;;;;5073521;28;20036;-70
2023/07/10 00:03:28;;;;;;;10.23;7.07;;;17.50;99.90;;;;;;5073740;28;20024;-70
2023/07/10 00:05:55;;;;;;;9.60;7.15;;;17.50;99.90;;;;;;5073894;28;20020;-70
2023/07/10 00:08:20;;;;;;;8.63;6.68;;;17.50;99.90;;;;;;5071979;28;20029;-70
2023/07/10 00:10:46;;;;;;;9.07;7.10;;;17.40;99.90;;;;;;5088978;28;20070;-70
2023/07/10 00:13:12;;;;;;;8.63;6.95;;;17.40;99.90;;;;;;5073782;28;20126;-71
2023/07/10 00:15:39;;;;;;;7.47;6.70;;;17.30;99.90;;;;;;5072185;28;20424;-69
2023/07/10 00:18:12;;;;;;;7.03;6.32;;;17.40;99.90;;;;;;5075709;28;20032;-69
2023/07/10 00:20:38;;;;;;;14.43;7.57;;;17.30;99.90;;;;;;5077452;28;20038;-70
2023/07/10 00:23:03;;;;;;;8.07;6.45;;;17.30;99.90;;;;;;5077555;28;20025;-70
2023/07/10 00:25:29;;;;;;;11.15;6.95;;;17.20;99.90;;;;;;5092870;28;20484;-70
2023/07/10 00:27:55;;;;;;;10.02;7.63;;;17.20;99.90;;;;;;5092802;28;20090;-70
2023/07/10 00:30:22;;;;;;;7.90;6.82;;;17.20;99.90;;;;;;5077405;28;20037;-71
2023/07/10 00:32:53;;;;;;;8.55;7.18;;;17.20;99.90;;;;;;5077459;28;20032;-70
2023/07/10 00:35:24;;;;;;;7.68;6.63;;;17.10;99.90;;;;;;5076008;28;20025;-71
2023/07/10 00:38:01;;;;;;;10.68;7.43;;;17.10;99.90;;;;;;5077123;28;20020;-71
2023/07/10 00:40:30;;;;;;;7.93;7.05;;;17.10;99.90;;;;;;5077284;28;20461;-71
2023/07/10 00:43:21;;;;;;;11.18;6.93;;;17.10;99.90;;;;;;5075757;28;20037;-71
2023/07/10 00:45:49;;;;;;;8.95;6.95;;;17.00;99.90;;;;;;5038919;28;20481;-72
2023/07/10 00:48:41;;;;;;;7.93;7.13;;;17.00;99.90;;;;;;5077183;28;20063;-72
2023/07/10 00:51:23;;;;;;;8.63;7.60;;;17.00;99.90;;;;;;5075313;28;20101;-71
2023/07/10 00:53:51;;;;;;;9.40;7.05;;;17.00;99.90;;;;;;5076915;28;20038;-72
2023/07/10 00:56:19;;;;;;;12.43;6.57;;;17.00;99.90;;;;;;5076781;28;20033;-72
2023/07/10 00:58:47;;;;;;;8.63;6.72;;;17.00;99.90;;;;;;5076594;28;20052;-71
2023/07/10 01:01:13;;;;;;;9.02;7.25;;;17.00;99.90;;;;;;5076672;28;20051;-72
2023/07/10 01:03:41;;;;;;;11.43;7.18;;;17.00;99.90;;;;;;5075916;28;20414;-70
2023/07/10 01:06:30;;;;;;;10.40;7.20;;;17.00;99.90;;;;;;5076270;28;20361;-71
2023/07/10 01:09:02;;;;;;;10.80;6.97;;;17.00;99.90;;;;;;5076556;28;20024;-72
2023/07/10 01:11:28;;;;;;;7.47;6.60;;;17.00;99.90;;;;;;5076458;28;20036;-70
2023/07/10 01:13:56;;;;;;;8.23;7.30;;;17.00;99.90;;;;;;5076198;28;20032;-70
2023/07/10 01:16:23;;;;;;;8.37;6.57;;;16.90;99.90;;;;;;5076435;28;20036;-72
2023/07/10 01:18:49;;;;;;;9.23;7.10;;;16.90;99.90;;;;;;5075062;28;20105;-72
2023/07/10 01:21:30;;;;;;;8.68;6.80;;;16.90;99.90;;;;;;5076315;28;20380;-71
2023/07/10 01:23:57;;;;;;;8.10;6.55;;;16.90;99.90;;;;;;5076274;28;20128;-70
2023/07/10 01:26:24;;;;;;;6.95;6.35;;;16.90;99.90;;;;;;5075948;28;20020;-71
2023/07/10 01:28:52;;;;;;;8.80;6.40;;;16.90;99.90;;;;;;5075628;28;20418;-72
2023/07/10 01:31:19;;;;;;;10.05;7.43;;;16.90;99.90;;;;;;5076048;28;20086;-71
2023/07/10 01:34:01;;;;;;;11.05;6.75;;;16.80;99.90;;;;;;5074495;28;20090;-71
2023/07/10 01:36:33;;;;;;;11.10;6.65;;;16.80;99.90;;;;;;5074994;28;20357;-71
2023/07/10 01:39:04;;;;;;;7.70;6.95;;;16.80;99.90;;;;;;5074971;28;20024;-72
2023/07/10 01:41:38;;;;;;;11.05;6.70;;;16.80;99.90;;;;;;5076519;28;20024;-71
2023/07/10 01:44:26;;;;;;;8.25;6.47;;;16.80;99.90;;;;;;5074665;28;20024;-71
2023/07/10 01:46:53;;;;;;;9.60;6.88;;;16.80;99.90;;;;;;5063148;28;20467;-71
2023/07/10 01:49:24;;;;;;;7.95;6.38;;;16.70;99.90;;;;;;5074599;28;20029;-71
2023/07/10 01:51:51;;;;;;;8.38;7.05;;;16.70;99.90;;;;;;5074020;28;20056;-72
2023/07/10 01:54:17;;;;;;;10.48;6.97;;;16.70;99.90;;;;;;5075713;28;20464;-72
2023/07/10 01:56:44;;;;;;;8.40;6.70;;;16.70;99.90;;;;;;5075859;28;20040;-71
2023/07/10 01:59:10;;;;;;;8.48;6.82;;;16.70;99.90;;;;;;5075609;28;20059;-72
2023/07/10 02:01:36;;;;;;;8.23;6.63;;;16.70;99.90;;;;;;5075253;28;20024;-71
2023/07/10 02:04:03;;;;;;;7.68;6.22;;;16.60;99.90;;;;;;5075203;28;20044;-72
2023/07/10 02:06:31;;;;;;;10.93;7.85;;;16.60;99.90;;;;;;5074288;28;20032;-71
2023/07/10 02:08:57;;;;;;;10.27;6.93;;;16.60;99.90;;;;;;5074089;28;20043;-72
2023/07/10 02:11:23;;;;;;;12.02;6.78;;;16.60;99.90;;;;;;5075131;28;20032;-71
2023/07/10 02:13:48;;;;;;;7.57;6.78;;;16.60;99.90;;;;;;5074032;28;20032;-71
2023/07/10 02:16:15;;;;;;;9.55;6.53;;;16.60;99.90;;;;;;5074975;28;20532;-72
2023/07/10 02:18:41;;;;;;;9.23;6.28;;;16.50;99.90;;;;;;5075224;28;20032;-72
2023/07/10 02:21:07;;;;;;;8.07;7.28;;;16.50;99.90;;;;;;5075400;28;20036;-72
2023/07/10 02:23:34;;;;;;;11.55;7.20;;;16.50;99.90;;;;;;5075083;28;20024;-72
2023/07/10 02:26:01;;;;;;;9.82;7.22;;;16.40;99.90;;;;;;5073766;28;20453;-71
2023/07/10 02:28:27;;;;;;;11.77;7.15;;;16.40;99.90;;;;;;5075260;28;20028;-72
2023/07/10 02:30:52;;;;;;;10.88;6.75;;;16.40;99.90;;;;;;5075064;28;20082;-71
2023/07/10 02:33:19;;;;;;;9.63;6.65;;;16.40;99.90;;;;;;5075211;28;20050;-72
2023/07/10 02:35:46;;;;;;;7.90;6.93;;;16.30;99.90;;;;;;5074852;28;20415;-72
2023/07/10 02:38:11;;;;;;;7.65;6.70;;;16.30;99.90;;;;;;5073217;28;20029;-71
2023/07/10 02:40:37;;;;;;;8.40;6.88;;;16.20;99.90;;;;;;5073550;28;20090;-71
2023/07/10 02:43:02;;;;;;;8.88;6.78;;;16.20;99.90;;;;;;5074968;28;20024;-72
2023/07/10 02:45:28;;;;;;;12.15;6.82;;;16.20;99.90;;;;;;5090739;28;20127;-72
2023/07/10 02:47:53;;;;;;;9.05;6.65;;;16.20;99.90;;;;;;5075078;28;20033;-72
2023/07/10 02:50:19;;;;;;;11.02;6.93;;;16.20;99.90;;;;;;5073215;28;20030;-72
2023/07/10 02:52:45;;;;;;;10.93;6.60;;;16.20;99.90;;;;;;5054840;28;20057;-72
2023/07/10 02:55:10;;;;;;;9.30;6.63;;;16.10;99.90;;;;;;5054252;28;20430;-71
2023/07/10 02:57:36;;;;;;;13.70;7.18;;;16.10;99.90;;;;;;5053224;28;20033;-72
2023/07/10 03:00:03;;;;;;;7.47;6.47;;;16.10;99.90;;;;;;5054428;28;20468;-72
2023/07/10 03:02:28;;;;;;;7.63;6.82;;;16.10;99.90;;;;;;5054310;28;20457;-71
2023/07/10 03:04:54;;;;;;;10.63;6.82;;;16.10;99.90;;;;;;5036466;28;20086;-72
2023/07/10 03:07:20;;;;;;;8.07;6.50;;;16.10;99.90;;;;;;5036553;28;20064;-72
2023/07/10 03:09:45;;;;;;;8.32;7.03;;;16.10;99.90;;;;;;5054217;28;20031;-72
2023/07/10 03:12:11;;;;;;;8.35;6.40;;;16.10;99.90;;;;;;5054086;28;20029;-72
2023/07/10 03:14:36;;;;;;;9.38;6.65;;;16.10;99.90;;;;;;5054133;28;20030;-72
2023/07/10 03:17:04;;;;;;;8.68;7.03;;;16.10;99.90;;;;;;5054366;28;20033;-72
2023/07/10 03:19:31;;;;;;;7.20;6.35;;;16.00;99.90;;;;;;5036182;28;20029;-72
2023/07/10 03:21:57;;;;;;;7.20;6.40;;;16.00;99.90;;;;;;5054042;28;20040;-71
2023/07/10 03:24:22;;;;;;;6.78;5.80;;;16.00;99.90;;;;;;5053729;28;20033;-72
2023/07/10 03:26:48;;;;;;;9.68;6.45;;;16.00;99.90;;;;;;5053917;28;20071;-72
2023/07/10 03:29:15;;;;;;;9.00;7.30;;;16.00;99.90;;;;;;5053925;28;20026;-72
2023/07/10 03:31:41;;;;;;;9.65;6.47;;;16.10;99.90;;;;;;5035601;28;20095;-71
2023/07/10 03:34:07;;;;;;;8.40;6.18;;;16.10;99.90;;;;;;5053641;28;20480;-71
2023/07/10 03:36:33;;;;;;;9.25;6.75;;;16.10;99.90;;;;;;5053784;28;20025;-72
2023/07/10 03:38:59;;;;;;;10.85;6.70;;;16.10;99.90;;;;;;5053972;28;20056;-72
2023/07/10 03:41:27;;;;;;;14.52;7.00;;;16.20;99.90;;;;;;5035790;28;20032;-72
2023/07/10 03:43:53;;;;;;;7.28;6.30;;;16.20;99.90;;;;;;5052488;28;20387;-72
2023/07/10 03:46:19;;;;;;;10.68;7.10;;;16.20;99.90;;;;;;5053708;28;20115;-71
2023/07/10 03:48:45;;;;;;;8.82;6.03;;;16.30;99.90;;;;;;5053625;28;20401;-72
2023/07/10 03:51:10;;;;;;;13.77;7.43;;;16.30;99.90;;;;;;5044458;28;20082;-72
2023/07/10 03:53:36;;;;;;;10.75;6.78;;;16.30;99.90;;;;;;5073443;28;20035;-71
2023/07/10 03:56:02;;;;;;;11.32;6.97;;;16.40;99.90;;;;;;5072356;28;20098;-72
2023/07/10 03:58:33;;;;;;;7.05;5.82;;;16.50;99.90;;;;;;5072707;28;20020;-72
2023/07/10 04:01:01;;;;;;;8.38;6.00;;;16.50;99.90;;;;;;5073164;28;20384;-72
2023/07/10 04:03:29;;;;;;;9.27;6.20;;;16.60;99.90;;;;;;5073794;28;20021;-72
2023/07/10 04:05:58;;;;;;;9.07;6.35;;;16.70;99.90;;;;;;5073501;28;20415;-71
2023/07/10 04:08:28;;;;;;;8.20;6.37;;;16.80;99.90;;;;;;5073803;28;20021;-72
2023/07/10 04:10:55;;;;;;;6.65;5.97;;;16.80;99.90;;;;;;5072668;28;20465;-72
2023/07/10 04:13:21;;;;;;;9.23;6.10;;;16.90;99.90;;;;;;5073633;28;20372;-71
2023/07/10 04:16:04;;;;;;;8.13;6.05;;;17.00;99.90;;;;;;5072475;28;20024;-71
2023/07/10 04:18:35;;;;;;;8.55;6.78;;;17.10;99.90;;;;;;5072190;28;20036;-72
2023/07/10 04:21:03;;;;;;;7.72;5.72;;;17.20;99.90;;;;;;5072725;28;20024;-71
2023/07/10 04:23:29;;;;;;;9.07;6.15;;;17.30;99.90;;;;;;5073379;28;20017;-71
2023/07/10 04:25:55;;;;;;;8.57;5.53;;;17.40;99.90;;;;;;5072153;28;20039;-71
2023/07/10 04:28:21;;;;;;;9.02;6.45;;;17.50;99.90;;;;;;5073114;28;20021;-71
2023/07/10 04:30:47;;;;;;;7.40;5.53;;;17.50;99.90;;;;;;5088704;28;20054;-71
2023/07/10 04:33:18;;;;;;;15.48;5.60;;;17.50;99.90;;;;;;5072013;28;20029;-69
2023/07/10 04:35:44;;;;;;;11.07;6.28;;;17.60;99.90;;;;;;5073600;28;20038;-72
2023/07/10 04:38:10;;;;;;;14.48;5.90;;;17.70;99.90;;;;;;5073397;28;20041;-71
2023/07/10 04:40:36;;;;;;;7.85;5.65;;;17.80;99.90;;;;;;5072583;28;20483;-72
2023/07/10 04:43:04;;;;;;;8.93;5.60;;;17.90;99.90;;;;;;5088616;28;20115;-71
2023/07/10 04:45:30;;;;;;;11.75;6.50;;;17.90;99.90;;;;;;5072073;28;20025;-71
2023/07/10 04:47:56;;;;;;;6.75;5.07;;;18.00;99.90;;;;;;5073514;28;20033;-71
2023/07/10 04:50:22;;;;;;;9.13;5.07;;;18.10;99.90;;;;;;5088647;28;20035;-70
2023/07/10 04:52:48;;;;;;;10.93;6.13;;;18.20;99.90;;;;;;5053786;28;20083;-71
2023/07/10 04:55:14;;;;;;;6.43;5.35;;;18.30;99.90;;;;;;5053421;28;20143;-72
2023/07/10 04:57:39;;;;;;;7.65;5.63;;;18.40;99.90;;;;;;5053235;28;20037;-71
2023/07/10 05:00:06;;;;;;;8.60;5.78;;;18.40;99.90;;;;;;5051888;28;20036;-70
2023/07/10 05:02:31;;;;;;;8.25;5.57;;;18.50;99.90;;;;;;5035415;28;20025;-73
2023/07/10 05:04:57;;;;;;;9.23;5.78;;;18.60;99.90;;;;;;5056354;28;20032;-78
2023/07/10 05:07:23;;;;;;;8.48;5.70;;;18.70;99.90;;;;;;5038582;28;20032;-76
2023/07/10 05:09:48;;;;;;;6.60;5.60;;;18.90;99.90;;;;;;5055177;28;20033;-74
2023/07/10 05:12:15;;;;;;;12.27;5.32;;;19.00;99.90;;;;;;5056372;28;20040;-75
2023/07/10 05:14:40;;;;;;;9.60;5.63;;;19.20;99.90;;;;;;5038504;28;20047;-73
2023/07/10 05:17:06;;;;;;;9.10;5.53;;;19.30;99.90;;;;;;5038333;28;20465;-67
2023/07/10 05:19:33;;;;;;;9.75;5.53;;;19.40;99.90;;;;;;5055937;28;20060;-70
2023/07/10 05:21:59;;;;;;;6.63;4.97;;;19.50;99.90;;;;;;5056088;28;20036;-68
2023/07/10 05:24:25;;;;;;;7.05;5.18;;;19.60;99.90;;;;;;5056164;28;20036;-69
2023/07/10 05:26:51;;;;;;;6.68;5.20;;;19.60;99.90;;;;;;5038047;28;20029;-68
2023/07/10 05:29:16;;;;;;;9.30;5.18;;;19.80;99.90;;;;;;5055858;28;20079;-70
2023/07/10 05:31:42;;;;;;;7.13;5.43;;;19.90;99.90;;;;;;5055695;28;20127;-69
2023/07/10 05:34:08;;;;;;;7.18;5.30;;;20.00;99.90;;;;;;5055967;28;20025;-59
2023/07/10 05:36:33;;;;;;;8.82;6.05;;;20.10;99.90;;;;;;5054561;28;20120;-60
2023/07/10 05:38:59;;;;;;;11.43;5.50;;;20.20;99.90;;;;;;5056130;28;20029;-59
2023/07/10 05:41:24;;;;;;;8.70;5.40;;;20.40;99.90;;;;;;5037675;28;20039;-58
2023/07/10 05:43:50;;;;;;;5.65;5.03;;;20.50;99.90;;;;;;5054547;28;20032;-58
2023/07/10 05:46:17;;;;;;;9.02;5.50;;;20.70;99.90;;;;;;5037849;28;20120;-58
2023/07/10 05:48:43;;;;;;;8.15;5.68;;;20.80;99.90;;;;;;5055613;28;20384;-58
2023/07/10 05:51:08;;;;;;;10.35;5.68;;;21.00;99.90;;;;;;5055530;28;20053;-58
2023/07/10 05:53:34;;;;;;;9.70;5.47;;;21.20;99.90;;;;;;5055906;28;20029;-59
2023/07/10 05:56:01;;;;;;;9.77;5.07;;;21.40;99.90;;;;;;5054000;28;21029;-59
2023/07/10 05:58:28;;;;;;;5.78;5.18;;;21.50;99.90;;;;;;5075551;28;20035;-58
2023/07/10 06:00:57;;;;;;;6.35;4.80;;;21.70;99.90;;;;;;5075495;28;20028;-58
2023/07/10 06:03:23;;;;;;;7.28;5.20;;;21.80;99.90;;;;;;5075637;28;20028;-58
2023/07/10 06:05:56;;;;;;;10.95;5.18;;;22.00;99.90;;;;;;5057396;28;20032;-59
2023/07/10 06:08:23;;;;;;;8.50;5.43;;;22.10;99.90;;;;;;5075848;28;20025;-58
2023/07/10 06:10:49;;;;;;;8.45;5.25;;;22.20;99.90;;;;;;5056988;28;20082;-60
2023/07/10 06:13:15;;;;;;;6.00;4.63;;;22.40;99.90;;;;;;5057312;28;20029;-58
2023/07/10 06:15:45;;;;;;;11.30;5.15;;;22.50;99.90;;;;;;5074971;28;20068;-60
2023/07/10 06:18:11;;;;;;;6.13;5.25;;;22.70;99.90;;;;;;5074889;28;20027;-60
2023/07/10 06:20:36;;;;;;;11.40;5.10;;;22.90;99.90;;;;;;5056832;28;20380;-60
2023/07/10 06:23:02;;;;;;;11.75;5.10;;;23.30;99.90;;;;;;5075479;28;20544;-60
2023/07/10 06:25:27;;;;;;;10.68;5.22;;;23.70;99.90;;;;;;5074988;28;20075;-61
2023/07/10 06:27:53;;;;;;;10.10;4.95;;;24.20;99.90;;;;;;5075244;28;20021;-59
2023/07/10 06:30:19;;;;;;;7.45;4.90;;;24.60;99.90;;;;;;5056961;28;20463;-60
2023/07/10 06:32:44;;;;;;;11.75;5.07;;;25.00;99.90;;;;;;5074727;28;20033;-60
2023/07/10 06:35:13;;;;;;;8.88;4.75;;;25.30;99.90;;;;;;5075136;28;20029;-61
2023/07/10 06:37:40;;;;;;;9.30;5.05;;;25.70;99.90;;;;;;5056817;28;20025;-61
2023/07/10 06:40:09;;;;;;;7.80;4.45;;;26.00;99.90;;;;;;5074756;28;20163;-61
2023/07/10 06:42:35;;;;;;;11.18;5.50;;;26.40;99.90;;;;;;5074673;28;20060;-62
2023/07/10 06:45:01;;;;;;;6.85;4.45;;;26.80;99.90;;;;;;5057134;28;20055;-61
2023/07/10 06:47:26;;;;;;;6.20;4.55;;;27.00;97.50;;;;;;5074587;28;20449;-61
2023/07/10 06:49:52;;;;;;;6.10;4.70;;;27.30;94.30;;;;;;5074289;28;20459;-61
2023/07/10 06:52:17;;;;;;;8.10;4.47;;;27.70;94.60;;;;;;5074638;28;20099;-70
2023/07/10 06:54:43;;;;;;;8.30;4.65;;;28.20;91.50;;;;;;5074364;28;20021;-69
2023/07/10 06:57:09;;;;;;;6.93;4.50;;;28.70;90.30;;;;;;5056112;28;20056;-70
2023/07/10 06:59:34;;;;;;;4.78;4.20;;;29.10;85.20;;;;;;5074465;28;20112;-71
2023/07/10 07:02:00;;;;;;;5.95;4.97;;;29.60;81.50;;;;;;5074292;28;20408;-70
2023/07/10 07:04:25;;;;;;;5.47;4.32;;;30.00;78.70;;;;;;5074212;28;20073;-79
2023/07/10 07:06:51;;;;;;;4.70;4.13;;;30.10;87.60;;;;;;5056360;28;20051;-85
2023/07/10 07:09:16;;;;;;;4.88;3.80;;;31.30;78.40;;;;;;5074159;28;20048;-72
2023/07/10 07:11:42;;;;;;;6.60;4.07;;;32.90;77.70;;;;;;5074237;28;20119;-76
2023/07/10 07:14:08;;;;;;;6.15;3.75;;;34.20;71.60;;;;;;5074972;28;20033;-80
2023/07/10 07:16:33;;;;;;;3.97;3.55;;;35.10;64.00;;;;;;5074299;28;20021;-81
2023/07/10 07:18:59;;;;;;;5.43;3.88;;;35.70;60.20;;;;;;5074193;28;20031;-75
2023/07/10 07:21:25;;;;;;;6.53;4.35;;;36.00;56.00;;;;;;5074477;28;20461;-77
2023/07/10 07:23:50;;;;;;;3.72;3.42;;;36.10;55.30;;;;;;5073932;28;20052;-76
2023/07/10 07:26:16;;;;;;;4.47;4.05;;;36.60;53.00;;;;;;5055669;28;20021;-79
2023/07/10 07:28:43;;;;;;;9.85;4.43;;;36.60;54.00;;;;;;5074456;28;20074;-82
2023/07/10 07:31:08;;;;;;;4.22;3.80;;;36.30;50.80;;;;;;5074396;28;20151;-81
2023/07/10 07:33:34;;;;;;;6.03;4.15;;;36.60;50.20;;;;;;5056404;28;20119;-82
2023/07/10 07:36:01;;;;;;;4.20;3.80;;;36.90;50.50;;;;;;5073926;28;20024;-75
2023/07/10 07:38:26;;;;;;;4.32;3.83;;;36.90;51.80;;;;;;5055892;28;20028;-81
2023/07/10 07:40:52;;;;;;;9.70;3.85;;;36.60;53.00;;;;;;5056534;28;20041;-80
2023/07/10 07:43:18;;;;;;;6.80;3.97;;;36.90;52.00;;;;;;5056388;28;20419;-77
2023/07/10 07:45:54;;;;;;;4.70;3.72;;;36.80;51.20;;;;;;5074026;28;20111;-79
2023/07/10 07:48:21;;;;;;;4.47;4.07;;;37.10;52.50;;;;;;5074383;28;20024;-78
2023/07/10 07:50:59;;;;;;;3.88;3.58;;;36.80;48.60;;;;;;5073512;28;20044;-74
2023/07/10 07:53:25;;;;;;;4.18;3.88;;;37.10;49.10;;;;;;5073525;28;20032;-76
2023/07/10 07:55:51;;;;;;;4.47;4.03;;;36.50;47.60;;;;;;5038856;28;20029;-77
2023/07/10 07:58:17;;;;;;;4.13;3.55;;;36.90;48.00;;;;;;5055476;28;20021;-77
2023/07/10 08:00:43;;;;;;;4.05;3.65;;;37.00;46.20;;;;;;5055583;28;20032;-76
2023/07/10 08:03:12;;;;;;;5.22;3.60;;;36.70;46.30;;;;;;5073496;28;20036;-77
2023/07/10 08:05:38;;;;;;;5.68;3.92;;;36.90;45.30;;;;;;5055648;28;20032;-77
2023/07/10 08:08:05;;;;;;;5.63;4.45;;;36.90;45.70;;;;;;5055542;28;20176;-77
2023/07/10 08:10:35;;;;;;;3.75;3.45;;;36.90;44.90;;;;;;5055554;28;20063;-77
2023/07/10 08:13:03;;;;;;;4.55;3.80;;;37.00;44.70;;;;;;5055468;28;20033;-77
2023/07/10 08:15:30;;;;;;;8.45;4.03;;;37.40;44.30;;;;;;5055488;28;20051;-77
2023/07/10 08:17:56;;;;;;;4.65;3.58;;;37.40;42.90;;;;;;5073648;28;20037;-77
2023/07/10 08:20:22;;;;;;;5.60;4.22;;;37.30;43.40;;;;;;5073612;28;20534;-77
2023/07/10 08:22:47;;;;;;;5.13;4.10;;;37.40;43.00;;;;;;5073477;28;20024;-77
2023/07/10 08:25:13;;;;;;;5.45;3.67;;;37.30;42.80;;;;;;5073121;28;20090;-78
2023/07/10 08:27:40;;;;;;;5.82;4.15;;;37.40;42.50;;;;;;5055199;28;20127;-79
2023/07/10 08:30:07;;;;;;;6.15;4.07;;;37.50;41.50;;;;;;5055167;28;20028;-78
2023/07/10 08:32:33;;;;;;;5.72;4.07;;;37.60;41.20;;;;;;5055217;28;20379;-78
2023/07/10 08:34:59;;;;;;;4.22;3.83;;;37.40;41.60;;;;;;5073204;28;20028;-78
2023/07/10 08:37:24;;;;;;;5.95;3.40;;;37.70;41.60;;;;;;5055446;28;20154;-78
2023/07/10 08:39:50;;;;;;;4.18;3.50;;;37.40;42.30;;;;;;5076460;28;20032;-78
2023/07/10 08:42:20;;;;;;;4.30;3.90;;;37.70;41.20;;;;;;5076917;28;20474;-78
2023/07/10 08:44:49;;;;;;;6.45;4.15;;;38.00;41.00;;;;;;5059078;28;20487;-78
2023/07/10 08:47:24;;;;;;;3.95;3.55;;;38.40;40.30;;;;;;5076618;28;20390;-79
2023/07/10 08:50:10;;;;;;;4.78;4.07;;;38.50;39.40;;;;;;5076833;28;20021;-79
2023/07/10 08:53:10;;;;;;;4.22;3.63;;;38.40;39.30;;;;;;5090339;28;20044;-79
2023/07/10 08:55:41;;;;;;;4.35;3.95;;;37.70;39.40;;;;;;5042240;28;20141;-78
2023/07/10 08:58:19;;;;;;;4.43;3.42;;;37.60;40.30;;;;;;5097143;28;20020;-78
2023/07/10 09:00:47;;;;;;;8.45;3.97;;;38.00;39.40;;;;;;5096661;28;20506;-78
2023/07/10 09:03:15;;;;;;;4.57;3.30;;;38.50;39.40;;;;;;5095319;28;20028;-78
2023/07/10 09:05:43;;;;;;;;;;;38.50;39.20;;;;;;5097554;28;20102;-78
2023/07/10 09:08:13;;;;;;;3.80;3.40;;;38.70;40.00;;;;;;5096484;28;19953;-78
2023/07/10 09:10:50;;;;;;;4.05;3.63;;;38.70;38.70;;;;;;5096611;28;20032;-78
2023/07/10 09:13:34;;;;;;;4.25;3.72;;;39.00;39.00;;;;;;5096974;28;20020;-78
2023/07/10 09:16:01;;;;;;;6.00;4.38;;;39.00;37.80;;;;;;5096641;28;20024;-78
2023/07/10 09:19:00;;;;;;;5.95;4.03;;;38.90;38.00;;;;;;5096550;28;20024;-78
2023/07/10 09:21:32;;;;;;;5.13;3.88;;;39.00;38.50;;;;;;5095254;28;20024;-78
2023/07/10 09:23:58;;;;;;;4.00;3.60;;;38.90;38.20;;;;;;5096401;28;20055;-79
2023/07/10 09:26:37;;;;;;;7.50;3.88;;;39.00;38.80;;;;;;5095078;28;20067;-78
2023/07/10 09:29:15;;;;;;;4.32;3.92;;;39.00;38.80;;;;;;5096683;28;20464;-79
2023/07/10 09:32:07;;;;;;;4.40;3.80;;;39.00;38.60;;;;;;5096489;28;20108;-79
2023/07/10 09:34:34;;;;;;;4.13;3.78;;;38.90;38.20;;;;;;5096541;28;20039;-79
2023/07/10 09:37:05;;;;;;;4.57;3.23;;;38.70;37.90;;;;;;5094818;28;20024;-79
2023/07/10 09:39:32;;;;;;;4.20;3.70;;;38.40;38.20;;;;;;5096504;28;20025;-79
2023/07/10 09:41:59;;;;;;;4.63;4.00;;;38.40;38.70;;;;;;5096471;28;20375;-78
2023/07/10 09:44:34;;;;;;;4.00;3.60;;;38.30;41.90;;;;;;5096327;28;20024;-79
2023/07/10 09:47:09;;;;;;;4.65;3.20;;;38.10;40.70;;;;;;5095697;28;20028;-79
2023/07/10 09:49:41;;;;;;;4.60;3.60;;;38.10;39.60;;;;;;5095885;28;20028;-79
2023/07/10 09:52:25;;;;;;;6.20;4.00;;;38.30;40.00;;;;;;5081885;28;20056;-79
2023/07/10 09:54:59;;;;;;;5.70;3.58;;;38.70;40.00;;;;;;5075906;28;20157;-78
2023/07/10 09:57:25;;;;;;;4.05;3.65;;;38.80;40.60;;;;;;5075838;28;20033;-78
2023/07/10 09:59:56;;;;;;;4.57;3.28;;;39.20;40.30;;;;;;5075943;28;20025;-78
2023/07/10 10:02:35;;;;;;;5.65;4.07;;;39.60;39.70;;;;;;5075270;28;20111;-78
2023/07/10 10:05:16;;;;;;;5.35;3.60;;;40.10;38.10;;;;;;5057942;28;20028;-77
2023/07/10 10:07:45;;;;;;;3.88;3.53;;;40.20;36.90;;;;;;5075300;28;20469;-78
2023/07/10 10:10:22;;;;;;;3.80;3.50;;;40.20;35.30;;;;;;5057789;28;20028;-76
2023/07/10 10:13:14;;;;;;;4.28;3.53;;;40.40;36.20;;;;;;5057397;28;20051;-78
2023/07/10 10:16:15;;;;;;;3.78;3.47;;;40.90;36.00;;;;;;5075332;28;20021;-77
2023/07/10 10:18:44;;;;;;;4.90;4.50;;;41.40;36.30;;;;;;5075171;28;20024;-77
2023/07/10 10:21:16;;;;;;;4.00;3.67;;;41.20;34.00;;;;;;5057172;28;20056;-78
2023/07/10 10:23:44;;;;;;;4.30;3.47;;;41.30;34.30;;;;;;5075383;28;20055;-78
2023/07/10 10:26:41;;;;;;;4.75;3.50;;;41.40;34.50;;;;;;5075215;28;20028;-78
2023/07/10 10:29:33;;;;;;;3.70;3.40;;;41.60;34.10;;;;;;5057143;28;20492;-79
2023/07/10 10:32:23;;;;;;;3.95;3.60;;;41.60;33.60;;;;;;5057121;28;20127;-78
2023/07/10 10:35:08;;;;;;;4.78;3.30;;;41.30;34.00;;;;;;5057207;28;20061;-77
2023/07/10 10:37:59;;;;;;;4.13;3.67;;;41.00;33.70;;;;;;5074942;28;20070;-78
2023/07/10 10:40:44;;;;;;;3.70;3.35;;;40.70;33.00;;;;;;5056838;28;20029;-77
2023/07/10 10:43:19;;;;;;;4.40;3.63;;;40.00;33.60;;;;;;5056781;28;20025;-78
2023/07/10 10:45:57;;;;;;;6.00;3.53;;;39.60;33.80;;;;;;5057061;28;20027;-77
2023/07/10 10:48:29;;;;;;;;;;;39.60;33.90;;;;;;5075138;28;20020;-76
2023/07/10 10:51:03;;;;;;;6.97;3.72;;;39.70;34.20;;;;;;5074178;28;19921;-76
2023/07/10 10:53:50;;;;;;;6.43;3.80;;;39.40;35.00;;;;;;5074922;28;20032;-76
2023/07/10 10:56:31;;;;;;;4.15;3.75;;;39.90;34.50;;;;;;5056963;28;20043;-77
2023/07/10 10:59:31;;;;;;;10.00;4.32;;;39.70;34.40;;;;;;5074576;28;20027;-77
2023/07/10 11:02:40;;;;;;;4.72;3.70;;;39.60;35.60;;;;;;5048402;28;20040;-77
2023/07/10 11:05:27;;;;;;;4.10;3.70;;;39.50;37.50;;;;;;5058620;28;20115;-78
2023/07/10 11:07:57;;;;;;;4.68;3.70;;;39.30;38.60;;;;;;5056957;28;20111;-77
2023/07/10 11:10:31;;;;;;;4.82;3.90;;;39.60;41.40;;;;;;5075271;28;20033;-76
2023/07/10 11:12:58;;;;;;;5.65;3.45;;;39.90;34.80;;;;;;5074576;28;20361;-79
2023/07/10 11:15:26;;;;;;;4.10;3.38;;;40.30;34.50;;;;;;5056450;28;20029;-80
2023/07/10 11:17:52;;;;;;;;;;;40.60;34.80;;;;;;5075957;28;20099;-79
2023/07/10 11:20:18;;;;;;;4.18;3.60;;;40.80;35.00;;;;;;5078174;28;19904;-79
2023/07/10 11:22:53;;;;;;;4.00;3.70;;;40.90;34.70;;;;;;5074979;28;20024;-79
2023/07/10 11:25:57;;;;;;;4.90;4.07;;;41.00;33.40;;;;;;5056456;28;20028;-79
2023/07/10 11:28:28;;;;;;;5.25;3.95;;;41.20;32.90;;;;;;5041403;28;20033;-79
2023/07/10 11:31:18;;;;;;;4.38;3.97;;;40.80;32.40;;;;;;5074693;28;20039;-79
2023/07/10 11:33:48;;;;;;;4.93;3.88;;;40.30;33.30;;;;;;5057281;28;20086;-77
2023/07/10 11:36:26;;;;;;;4.35;3.40;;;40.20;33.40;;;;;;5064096;28;20064;-79
2023/07/10 11:38:55;;;;;;;;;;;41.00;33.10;;;;;;5060378;28;20040;-79
2023/07/10 11:41:28;;;;;;;4.35;3.95;;;41.00;32.90;;;;;;5077671;28;19908;-78
2023/07/10 11:44:11;;;;;;;6.97;4.35;;;41.80;33.50;;;;;;5076805;28;20464;-77
2023/07/10 11:46:36;;;;;;;4.32;3.53;;;42.00;33.20;;;;;;5058025;28;20032;-77
2023/07/10 11:49:15;;;;;;;4.15;3.75;;;41.90;31.60;;;;;;5076762;28;20024;-79
2023/07/10 11:51:41;;;;;;;4.68;3.67;;;41.90;31.60;;;;;;5075967;28;20088;-77
2023/07/10 11:54:13;;;;;;;3.70;3.35;;;41.50;31.80;;;;;;5077636;28;20035;-80
2023/07/10 11:56:58;;;;;;;4.70;4.20;;;41.70;31.60;;;;;;5060783;28;20031;-79
2023/07/10 11:59:24;;;;;;;5.60;3.60;;;42.00;33.20;;;;;;5077852;28;20469;-79
2023/07/10 12:01:51;;;;;;;6.70;3.80;;;42.00;31.40;;;;;;5077523;28;20035;-78
2023/07/10 12:04:18;;;;;;;5.47;3.90;;;42.00;31.30;;;;;;5077535;28;20431;-79
2023/07/10 12:06:45;;;;;;;4.75;3.88;;;41.40;32.80;;;;;;5060448;28;20468;-78
2023/07/10 12:09:11;;;;;;;6.32;3.50;;;41.40;29.90;;;;;;5059820;28;20024;-79
2023/07/10 12:11:38;;;;;;;5.28;4.10;;;41.70;30.30;;;;;;5077454;28;20045;-79
2023/07/10 12:14:08;;;;;;;5.45;3.78;;;42.20;30.50;;;;;;5063563;28;20070;-81
2023/07/10 12:16:43;;;;;;;5.50;4.88;;;41.90;29.70;;;;;;5079452;28;20042;-76
2023/07/10 12:19:19;;;;;;;3.80;3.42;;;41.50;30.40;;;;;;5062218;28;20020;-78
2023/07/10 12:21:45;;;;;;;5.75;3.65;;;41.70;30.60;;;;;;5061398;28;20387;-79
2023/07/10 12:24:16;;;;;;;4.10;3.55;;;41.90;30.20;;;;;;5079776;28;20029;-79
2023/07/10 12:26:42;;;;;;;3.95;3.50;;;41.20;29.40;;;;;;5079362;28;20028;-79
2023/07/10 12:29:13;;;;;;;7.38;4.43;;;40.40;30.10;;;;;;5079119;28;20067;-79
2023/07/10 12:31:40;;;;;;;4.53;3.50;;;39.60;31.60;;;;;;5078654;28;20064;-79
2023/07/10 12:34:14;;;;;;;5.85;3.65;;;38.70;32.10;;;;;;5077949;28;20028;-79
2023/07/10 12:36:39;;;;;;;7.85;3.80;;;38.10;32.00;;;;;;5060561;28;20487;-79
2023/07/10 12:39:08;;;;;;;6.40;3.70;;;37.30;32.90;;;;;;5078212;28;20032;-79
2023/07/10 12:41:39;;;;;;;6.65;3.40;;;36.90;32.10;;;;;;5077781;28;20491;-78
2023/07/10 12:44:05;;;;;;;11.07;3.78;;;36.80;32.60;;;;;;5077150;28;20023;-78
2023/07/10 12:46:32;;;;;;;6.18;3.60;;;36.90;33.00;;;;;;5077371;28;20472;-79
2023/07/10 12:49:13;;;;;;;3.72;3.20;;;36.80;32.50;;;;;;5059490;28;20380;-79
2023/07/10 12:51:41;;;;;;;7.63;3.72;;;36.70;33.80;;;;;;5075776;28;20553;-79
2023/07/10 12:54:27;;;;;;;6.00;3.72;;;36.70;37.30;;;;;;5097116;28;20115;-79
2023/07/10 12:56:54;;;;;;;5.03;3.15;;;36.80;35.90;;;;;;5096281;28;20039;-79
2023/07/10 12:59:34;;;;;;;5.05;3.55;;;37.20;37.70;;;;;;5096893;28;20020;-79